sensor_id;sensor_type;location;lat;lon;timestamp;pressure;altitude;pressure_sealevel;temperature;humidity
35676;BME280;21790;42.668;23.298;2024-03-23T00:54:21;94732.66;;;12.51;37.56
35676;BME280;21790;42.668;23.298;2024-03-23T00:56:47;94736.16;;;12.37;37.87
35676;BME280;21790;42.668;23.298;2024-03-23T00:59:13;94732.69;;;12.27;38.04
35676;BME280;21790;42.668;23.298;2024-03-23T01:01:39;94730.19;;;12.29;38.00
35676;BME280;21790;42.668;23.298;2024-03-23T01:04:05;94730.75;;;12.33;37.79
35676;BME280;21790;42.668;23.298;2024-03-23T01:06:31;94728.19;;;12.30;37.69
35676;BME280;21790;42.668;23.298;2024-03-23T01:08:57;94722.69;;;12.44;37.23
35676;BME280;21790;42.668;23.298;2024-03-23T01:11:23;94728.97;;;12.69;36.61
35676;BME280;21790;42.668;23.298;2024-03-23T01:13:49;94723.09;;;12.90;36.16
35676;BME280;21790;42.668;23.298;2024-03-23T01:16:15;94720.75;;;12.60;36.70
35676;BME280;21790;42.668;23.298;2024-03-23T01:18:40;94720.03;;;12.50;36.68
35676;BME280;21790;42.668;23.298;2024-03-23T01:21:06;94727.19;;;12.42;37.35
35676;BME280;21790;42.668;23.298;2024-03-23T01:23:32;94722.88;;;12.17;37.74
35676;BME280;21790;42.668;23.298;2024-03-23T01:25:57;94719.88;;;12.30;37.49
35676;BME280;21790;42.668;23.298;2024-03-23T01:28:23;94722.94;;;12.32;36.99
35676;BME280;21790;42.668;23.298;2024-03-23T01:30:49;94728.72;;;12.43;36.74
35676;BME280;21790;42.668;23.298;2024-03-23T01:33:15;94726.72;;;12.43;36.45
35676;BME280;21790;42.668;23.298;2024-03-23T01:35:41;94724.88;;;12.40;36.27
35676;BME280;21790;42.668;23.298;2024-03-23T01:38:07;94715.38;;;12.08;36.71
35676;BME280;21790;42.668;23.298;2024-03-23T01:40:33;94725.16;;;12.19;36.71
35676;BME280;21790;42.668;23.298;2024-03-23T01:43:06;94719.09;;;12.05;37.32
35676;BME280;21790;42.668;23.298;2024-03-23T01:45:35;94724.41;;;11.94;37.82
35676;BME280;21790;42.668;23.298;2024-03-23T01:48:02;94723.53;;;11.79;37.97
35676;BME280;21790;42.668;23.298;2024-03-23T01:50:30;94717.22;;;11.79;38.31
35676;BME280;21790;42.668;23.298;2024-03-23T01:52:58;94721.56;;;11.70;38.41
35676;BME280;21790;42.668;23.298;2024-03-23T01:55:25;94720.75;;;11.79;38.35
35676;BME280;21790;42.668;23.298;2024-03-23T01:57:51;94725.38;;;11.82;38.37
35676;BME280;21790;42.668;23.298;2024-03-23T02:00:17;94716.19;;;11.67;38.88
35676;BME280;21790;42.668;23.298;2024-03-23T02:02:47;94728.19;;;11.64;39.13
35676;BME280;21790;42.668;23.298;2024-03-23T02:05:13;94725.66;;;11.84;38.42
35676;BME280;21790;42.668;23.298;2024-03-23T02:07:40;94720.63;;;12.06;37.62
35676;BME280;21790;42.668;23.298;2024-03-23T02:10:07;94727.75;;;11.98;37.43
35676;BME280;21790;42.668;23.298;2024-03-23T02:12:34;94722.22;;;11.98;37.03
35676;BME280;21790;42.668;23.298;2024-03-23T02:15:00;94718.81;;;12.03;36.73
35676;BME280;21790;42.668;23.298;2024-03-23T02:17:26;94722.88;;;11.93;37.16
35676;BME280;21790;42.668;23.298;2024-03-23T02:19:52;94729.69;;;11.83;36.91
35676;BME280;21790;42.668;23.298;2024-03-23T02:22:18;94728.03;;;12.00;36.78
35676;BME280;21790;42.668;23.298;2024-03-23T02:24:43;94732.09;;;11.90;36.62
35676;BME280;21790;42.668;23.298;2024-03-23T02:27:10;94733.84;;;11.69;37.56
35676;BME280;21790;42.668;23.298;2024-03-23T02:29:36;94730.78;;;11.67;37.37
35676;BME280;21790;42.668;23.298;2024-03-23T02:32:01;94732.81;;;11.58;37.71
35676;BME280;21790;42.668;23.298;2024-03-23T02:34:28;94734.03;;;11.66;37.73
35676;BME280;21790;42.668;23.298;2024-03-23T02:36:54;94723.84;;;11.72;37.14
35676;BME280;21790;42.668;23.298;2024-03-23T02:39:20;94726.16;;;11.73;36.93
35676;BME280;21790;42.668;23.298;2024-03-23T02:41:47;94733.09;;;11.69;37.29
35676;BME280;21790;42.668;23.298;2024-03-23T02:44:13;94732.09;;;11.90;36.57
35676;BME280;21790;42.668;23.298;2024-03-23T02:46:39;94723.78;;;11.90;36.35
35676;BME280;21790;42.668;23.298;2024-03-23T02:49:06;94732.16;;;11.81;36.45
35676;BME280;21790;42.668;23.298;2024-03-23T02:51:31;94729.06;;;11.79;36.18
35676;BME280;21790;42.668;23.298;2024-03-23T02:53:57;94722.75;;;11.79;35.95
35676;BME280;21790;42.668;23.298;2024-03-23T02:56:23;94726.16;;;11.83;35.90
35676;BME280;21790;42.668;23.298;2024-03-23T02:58:49;94720.94;;;11.76;36.38
35676;BME280;21790;42.668;23.298;2024-03-23T03:01:15;94717.84;;;11.83;36.10
35676;BME280;21790;42.668;23.298;2024-03-23T03:03:41;94715.13;;;11.64;36.62
35676;BME280;21790;42.668;23.298;2024-03-23T03:06:07;94714.84;;;11.53;36.87
35676;BME280;21790;42.668;23.298;2024-03-23T03:08:33;94718.13;;;11.43;37.16
35676;BME280;21790;42.668;23.298;2024-03-23T03:10:59;94723.22;;;11.35;37.29
35676;BME280;21790;42.668;23.298;2024-03-23T03:13:25;94721.38;;;11.32;37.62
35676;BME280;21790;42.668;23.298;2024-03-23T03:15:50;94725.88;;;11.20;37.87
35676;BME280;21790;42.668;23.298;2024-03-23T03:18:16;94724.66;;;11.12;37.93
35676;BME280;21790;42.668;23.298;2024-03-23T03:20:42;94724.63;;;11.21;38.28
35676;BME280;21790;42.668;23.298;2024-03-23T03:23:09;94718.97;;;11.16;38.36
35676;BME280;21790;42.668;23.298;2024-03-23T03:25:35;94720.00;;;11.27;38.26
35676;BME280;21790;42.668;23.298;2024-03-23T03:28:01;94718.50;;;11.08;38.43
35676;BME280;21790;42.668;23.298;2024-03-23T03:30:27;94725.41;;;11.13;38.40
35676;BME280;21790;42.668;23.298;2024-03-23T03:32:53;94726.81;;;11.17;38.37
35676;BME280;21790;42.668;23.298;2024-03-23T03:35:20;94725.69;;;11.24;37.95
35676;BME280;21790;42.668;23.298;2024-03-23T03:37:46;94720.13;;;11.42;37.46
35676;BME280;21790;42.668;23.298;2024-03-23T03:40:13;94721.66;;;11.43;37.51
35676;BME280;21790;42.668;23.298;2024-03-23T03:42:41;94721.06;;;11.30;37.83
35676;BME280;21790;42.668;23.298;2024-03-23T03:45:07;94728.88;;;11.41;37.26
35676;BME280;21790;42.668;23.298;2024-03-23T03:47:33;94719.25;;;11.27;37.92
35676;BME280;21790;42.668;23.298;2024-03-23T03:49:59;94718.75;;;11.38;37.59
35676;BME280;21790;42.668;23.298;2024-03-23T03:52:25;94727.44;;;11.12;38.28
35676;BME280;21790;42.668;23.298;2024-03-23T03:54:51;94734.69;;;11.01;38.56
35676;BME280;21790;42.668;23.298;2024-03-23T03:57:17;94731.59;;;10.99;38.24
35676;BME280;21790;42.668;23.298;2024-03-23T03:59:43;94730.22;;;10.94;38.38
35676;BME280;21790;42.668;23.298;2024-03-23T04:02:09;94718.84;;;11.01;38.20
35676;BME280;21790;42.668;23.298;2024-03-23T04:04:35;94731.72;;;11.22;37.72
35676;BME280;21790;42.668;23.298;2024-03-23T04:07:02;94734.47;;;11.13;37.63
35676;BME280;21790;42.668;23.298;2024-03-23T04:09:28;94727.22;;;11.25;37.62
35676;BME280;21790;42.668;23.298;2024-03-23T04:11:54;94723.34;;;11.41;37.08
35676;BME280;21790;42.668;23.298;2024-03-23T04:14:19;94729.69;;;11.32;36.94
35676;BME280;21790;42.668;23.298;2024-03-23T04:16:45;94717.88;;;11.22;36.93
35676;BME280;21790;42.668;23.298;2024-03-23T04:19:11;94742.88;;;11.37;36.81
35676;BME280;21790;42.668;23.298;2024-03-23T04:21:37;94740.16;;;11.28;36.88
35676;BME280;21790;42.668;23.298;2024-03-23T04:24:04;94736.34;;;11.16;37.27
35676;BME280;21790;42.668;23.298;2024-03-23T04:26:30;94733.72;;;11.22;36.94
35676;BME280;21790;42.668;23.298;2024-03-23T04:28:56;94733.28;;;11.05;36.91
35676;BME280;21790;42.668;23.298;2024-03-23T04:31:22;94737.28;;;10.95;37.18
35676;BME280;21790;42.668;23.298;2024-03-23T04:33:48;94741.75;;;11.02;37.30
35676;BME280;21790;42.668;23.298;2024-03-23T04:36:14;94742.66;;;10.80;37.95
35676;BME280;21790;42.668;23.298;2024-03-23T04:38:40;94744.66;;;10.89;37.42
35676;BME280;21790;42.668;23.298;2024-03-23T04:41:05;94744.19;;;10.81;37.86
35676;BME280;21790;42.668;23.298;2024-03-23T04:43:31;94745.59;;;10.77;38.17
35676;BME280;21790;42.668;23.298;2024-03-23T04:45:57;94752.50;;;10.72;38.50
35676;BME280;21790;42.668;23.298;2024-03-23T04:48:23;94749.56;;;11.12;37.79
35676;BME280;21790;42.668;23.298;2024-03-23T04:50:49;94746.66;;;11.07;37.85
35676;BME280;21790;42.668;23.298;2024-03-23T04:53:19;94755.34;;;11.32;37.93
35676;BME280;21790;42.668;23.298;2024-03-23T04:55:45;94754.88;;;11.43;37.81
35676;BME280;21790;42.668;23.298;2024-03-23T04:58:11;94751.13;;;11.55;37.54
35676;BME280;21790;42.668;23.298;2024-03-23T05:00:56;94753.34;;;11.84;36.93
35676;BME280;21790;42.668;23.298;2024-03-23T05:03:22;94758.38;;;11.95;37.13
35676;BME280;21790;42.668;23.298;2024-03-23T05:05:49;94760.16;;;12.07;36.66
35676;BME280;21790;42.668;23.298;2024-03-23T05:08:16;94748.56;;;11.94;36.70
35676;BME280;21790;42.668;23.298;2024-03-23T05:10:45;94751.56;;;12.29;36.76
35676;BME280;21790;42.668;23.298;2024-03-23T05:13:11;94752.25;;;12.47;36.42
35676;BME280;21790;42.668;23.298;2024-03-23T05:15:37;94754.53;;;12.49;35.97
35676;BME280;21790;42.668;23.298;2024-03-23T05:18:04;94754.34;;;12.76;35.75
35676;BME280;21790;42.668;23.298;2024-03-23T05:20:31;94750.53;;;12.88;35.54
35676;BME280;21790;42.668;23.298;2024-03-23T05:22:57;94751.34;;;13.04;35.54
35676;BME280;21790;42.668;23.298;2024-03-23T05:25:23;94748.72;;;13.24;35.41
35676;BME280;21790;42.668;23.298;2024-03-23T05:27:49;94740.94;;;13.28;35.26
35676;BME280;21790;42.668;23.298;2024-03-23T05:30:15;94739.59;;;13.38;35.10
35676;BME280;21790;42.668;23.298;2024-03-23T05:32:41;94732.03;;;13.68;34.85
35676;BME280;21790;42.668;23.298;2024-03-23T05:35:09;94743.03;;;13.77;34.57
35676;BME280;21790;42.668;23.298;2024-03-23T05:37:35;94735.00;;;13.79;34.54
35676;BME280;21790;42.668;23.298;2024-03-23T05:40:03;94744.53;;;13.93;34.28
35676;BME280;21790;42.668;23.298;2024-03-23T05:42:30;94736.75;;;13.97;34.20
35676;BME280;21790;42.668;23.298;2024-03-23T05:44:56;94745.78;;;13.92;34.44
35676;BME280;21790;42.668;23.298;2024-03-23T05:47:22;94746.28;;;13.90;34.29
35676;BME280;21790;42.668;23.298;2024-03-23T05:49:47;94742.00;;;13.74;34.52
35676;BME280;21790;42.668;23.298;2024-03-23T05:52:13;94739.19;;;13.89;34.40
35676;BME280;21790;42.668;23.298;2024-03-23T05:54:40;94746.47;;;13.87;34.86
35676;BME280;21790;42.668;23.298;2024-03-23T05:57:05;94738.81;;;13.81;35.05
35676;BME280;21790;42.668;23.298;2024-03-23T05:59:34;94744.84;;;13.80;34.91
35676;BME280;21790;42.668;23.298;2024-03-23T06:02:00;94738.88;;;13.87;34.79
35676;BME280;21790;42.668;23.298;2024-03-23T06:04:26;94736.38;;;14.04;34.51
35676;BME280;21790;42.668;23.298;2024-03-23T06:06:52;94739.06;;;14.33;34.09
35676;BME280;21790;42.668;23.298;2024-03-23T06:09:18;94738.06;;;14.51;33.92
35676;BME280;21790;42.668;23.298;2024-03-23T06:11:45;94736.59;;;14.55;33.83
35676;BME280;21790;42.668;23.298;2024-03-23T06:14:11;94733.81;;;14.76;33.49
35676;BME280;21790;42.668;23.298;2024-03-23T06:16:36;94726.50;;;14.98;33.09
35676;BME280;21790;42.668;23.298;2024-03-23T06:19:03;94725.66;;;15.18;32.85
35676;BME280;21790;42.668;23.298;2024-03-23T06:21:29;94733.88;;;15.27;32.88
35676;BME280;21790;42.668;23.298;2024-03-23T06:23:55;94726.56;;;15.56;32.75
35676;BME280;21790;42.668;23.298;2024-03-23T06:26:21;94720.41;;;15.77;32.35
35676;BME280;21790;42.668;23.298;2024-03-23T06:28:47;94715.72;;;15.95;31.82
35676;BME280;21790;42.668;23.298;2024-03-23T06:31:13;94724.19;;;16.11;31.69
35676;BME280;21790;42.668;23.298;2024-03-23T06:33:39;94719.00;;;16.30;31.63
35676;BME280;21790;42.668;23.298;2024-03-23T06:36:11;94725.19;;;16.51;31.35
35676;BME280;21790;42.668;23.298;2024-03-23T06:38:40;94723.41;;;16.53;31.74
35676;BME280;21790;42.668;23.298;2024-03-23T06:41:06;94729.81;;;16.59;31.62
35676;BME280;21790;42.668;23.298;2024-03-23T06:43:32;94725.34;;;16.79;31.11
35676;BME280;21790;42.668;23.298;2024-03-23T06:45:58;94719.84;;;16.95;30.81
35676;BME280;21790;42.668;23.298;2024-03-23T06:48:24;94726.94;;;16.91;30.85
35676;BME280;21790;42.668;23.298;2024-03-23T06:50:57;94726.25;;;17.18;30.70
35676;BME280;21790;42.668;23.298;2024-03-23T06:53:23;94726.78;;;17.28;30.03
35676;BME280;21790;42.668;23.298;2024-03-23T06:55:51;94727.59;;;17.50;29.82
35676;BME280;21790;42.668;23.298;2024-03-23T06:58:22;94726.59;;;17.65;29.42
35676;BME280;21790;42.668;23.298;2024-03-23T07:00:48;94725.84;;;17.75;29.46
35676;BME280;21790;42.668;23.298;2024-03-23T07:03:15;94725.56;;;17.79;29.50
35676;BME280;21790;42.668;23.298;2024-03-23T07:05:41;94719.47;;;17.91;29.21
35676;BME280;21790;42.668;23.298;2024-03-23T07:08:07;94708.56;;;17.93;29.33
35676;BME280;21790;42.668;23.298;2024-03-23T07:10:34;94714.16;;;18.05;29.20
35676;BME280;21790;42.668;23.298;2024-03-23T07:13:01;94708.00;;;18.23;28.10
35676;BME280;21790;42.668;23.298;2024-03-23T07:15:27;94704.13;;;18.54;35.19
35676;BME280;21790;42.668;23.298;2024-03-23T07:17:52;94707.56;;;18.93;37.21
35676;BME280;21790;42.668;23.298;2024-03-23T07:20:18;94708.06;;;19.38;29.97
35676;BME280;21790;42.668;23.298;2024-03-23T07:22:45;94701.75;;;19.32;27.44
35676;BME280;21790;42.668;23.298;2024-03-23T07:25:10;94696.75;;;19.19;27.52
35676;BME280;21790;42.668;23.298;2024-03-23T07:27:36;94697.63;;;18.98;28.27
35676;BME280;21790;42.668;23.298;2024-03-23T07:30:02;94695.78;;;19.06;27.77
35676;BME280;21790;42.668;23.298;2024-03-23T07:32:27;94680.56;;;18.96;28.01
35676;BME280;21790;42.668;23.298;2024-03-23T07:34:53;94688.63;;;19.10;27.30
35676;BME280;21790;42.668;23.298;2024-03-23T07:37:18;94687.88;;;19.10;27.71
35676;BME280;21790;42.668;23.298;2024-03-23T07:39:44;94684.59;;;19.00;27.88
35676;BME280;21790;42.668;23.298;2024-03-23T07:42:09;94685.59;;;19.08;27.47
35676;BME280;21790;42.668;23.298;2024-03-23T07:44:35;94682.97;;;19.21;27.05
35676;BME280;21790;42.668;23.298;2024-03-23T07:47:00;94678.59;;;19.26;26.69
35676;BME280;21790;42.668;23.298;2024-03-23T07:49:26;94684.47;;;19.28;26.85
35676;BME280;21790;42.668;23.298;2024-03-23T07:51:52;94676.38;;;19.19;27.18
35676;BME280;21790;42.668;23.298;2024-03-23T07:54:17;94673.81;;;19.15;27.08
35676;BME280;21790;42.668;23.298;2024-03-23T07:56:44;94670.72;;;19.25;27.30
35676;BME280;21790;42.668;23.298;2024-03-23T07:59:10;94675.69;;;19.48;26.55
35676;BME280;21790;42.668;23.298;2024-03-23T08:01:36;94685.06;;;19.56;26.27
35676;BME280;21790;42.668;23.298;2024-03-23T08:04:02;94684.84;;;19.49;26.13
35676;BME280;21790;42.668;23.298;2024-03-23T08:06:28;94682.44;;;19.64;25.63
35676;BME280;21790;42.668;23.298;2024-03-23T08:08:56;94667.34;;;19.73;25.72
35676;BME280;21790;42.668;23.298;2024-03-23T08:11:29;94675.94;;;19.80;25.94
35676;BME280;21790;42.668;23.298;2024-03-23T08:13:54;94672.22;;;19.26;27.34
35676;BME280;21790;42.668;23.298;2024-03-23T08:16:21;94675.69;;;19.43;26.28
35676;BME280;21790;42.668;23.298;2024-03-23T08:18:47;94671.31;;;19.53;27.02
35676;BME280;21790;42.668;23.298;2024-03-23T08:21:13;94670.50;;;19.17;27.76
35676;BME280;21790;42.668;23.298;2024-03-23T08:23:39;94667.47;;;19.15;27.74
35676;BME280;21790;42.668;23.298;2024-03-23T08:26:05;94664.94;;;19.58;26.12
35676;BME280;21790;42.668;23.298;2024-03-23T08:28:31;94658.75;;;19.95;25.53
35676;BME280;21790;42.668;23.298;2024-03-23T08:31:00;94657.53;;;20.15;25.49
35676;BME280;21790;42.668;23.298;2024-03-23T08:33:26;94664.03;;;20.28;29.30
35676;BME280;21790;42.668;23.298;2024-03-23T08:35:58;94658.94;;;20.51;25.03
35676;BME280;21790;42.668;23.298;2024-03-23T08:38:25;94653.50;;;20.59;24.66
35676;BME280;21790;42.668;23.298;2024-03-23T08:41:05;94649.44;;;20.97;24.46
35676;BME280;21790;42.668;23.298;2024-03-23T08:43:37;94651.72;;;20.99;24.57
35676;BME280;21790;42.668;23.298;2024-03-23T08:46:14;94645.78;;;21.02;24.29
35676;BME280;21790;42.668;23.298;2024-03-23T08:48:42;94637.53;;;20.91;24.85
35676;BME280;21790;42.668;23.298;2024-03-23T08:51:10;94631.44;;;20.87;24.60
35676;BME280;21790;42.668;23.298;2024-03-23T08:53:36;94635.31;;;21.03;24.85
35676;BME280;21790;42.668;23.298;2024-03-23T08:56:03;94630.50;;;21.22;24.38
35676;BME280;21790;42.668;23.298;2024-03-23T08:58:30;94633.66;;;21.32;24.21
35676;BME280;21790;42.668;23.298;2024-03-23T09:01:02;94626.13;;;21.40;24.09
35676;BME280;21790;42.668;23.298;2024-03-23T09:03:30;94624.44;;;21.50;28.75
35676;BME280;21790;42.668;23.298;2024-03-23T09:05:57;94617.09;;;21.92;29.02
35676;BME280;21790;42.668;23.298;2024-03-23T09:08:24;94613.34;;;22.16;25.81
35676;BME280;21790;42.668;23.298;2024-03-23T09:10:50;94611.41;;;22.10;23.72
35676;BME280;21790;42.668;23.298;2024-03-23T09:13:16;94612.50;;;22.07;23.25
35676;BME280;21790;42.668;23.298;2024-03-23T09:15:49;94602.97;;;22.10;22.97
35676;BME280;21790;42.668;23.298;2024-03-23T09:18:15;94601.44;;;21.96;23.30
35676;BME280;21790;42.668;23.298;2024-03-23T09:20:42;94593.31;;;22.06;23.95
35676;BME280;21790;42.668;23.298;2024-03-23T09:23:08;94594.94;;;22.01;24.07
35676;BME280;21790;42.668;23.298;2024-03-23T09:25:37;94594.22;;;22.14;23.88
35676;BME280;21790;42.668;23.298;2024-03-23T09:28:07;94588.38;;;22.25;23.43
35676;BME280;21790;42.668;23.298;2024-03-23T09:30:36;94579.38;;;22.27;23.05
35676;BME280;21790;42.668;23.298;2024-03-23T09:33:08;94571.16;;;22.42;23.06
35676;BME280;21790;42.668;23.298;2024-03-23T09:35:41;94572.81;;;21.79;23.71
35676;BME280;21790;42.668;23.298;2024-03-23T09:38:07;94569.75;;;22.09;24.48
35676;BME280;21790;42.668;23.298;2024-03-23T09:40:35;94562.13;;;22.43;23.61
35676;BME280;21790;42.668;23.298;2024-03-23T09:43:01;94562.25;;;22.51;22.96
35676;BME280;21790;42.668;23.298;2024-03-23T09:45:28;94557.03;;;22.55;22.73
35676;BME280;21790;42.668;23.298;2024-03-23T09:47:57;94548.69;;;22.63;22.92
35676;BME280;21790;42.668;23.298;2024-03-23T09:50:23;94543.38;;;22.59;23.91
35676;BME280;21790;42.668;23.298;2024-03-23T09:52:49;94540.25;;;22.49;23.81
35676;BME280;21790;42.668;23.298;2024-03-23T09:55:15;94537.63;;;22.78;22.98
35676;BME280;21790;42.668;23.298;2024-03-23T09:57:41;94537.44;;;22.97;22.69
35676;BME280;21790;42.668;23.298;2024-03-23T10:00:08;94528.47;;;23.19;23.07
35676;BME280;21790;42.668;23.298;2024-03-23T10:02:34;94518.19;;;23.21;22.58
35676;BME280;21790;42.668;23.298;2024-03-23T10:05:01;94523.06;;;23.21;22.76
35676;BME280;21790;42.668;23.298;2024-03-23T10:07:26;94518.59;;;23.25;22.42
35676;BME280;21790;42.668;23.298;2024-03-23T10:09:55;94520.25;;;23.42;22.25
35676;BME280;21790;42.668;23.298;2024-03-23T10:12:22;94497.22;;;23.51;21.60
35676;BME280;21790;42.668;23.298;2024-03-23T10:14:49;94499.97;;;23.64;21.57
35676;BME280;21790;42.668;23.298;2024-03-23T10:17:20;94501.03;;;23.82;21.76
35676;BME280;21790;42.668;23.298;2024-03-23T10:19:51;94501.03;;;23.82;21.23
35676;BME280;21790;42.668;23.298;2024-03-23T10:22:23;94498.84;;;23.95;21.48
35676;BME280;21790;42.668;23.298;2024-03-23T10:24:52;94497.91;;;23.93;21.29
35676;BME280;21790;42.668;23.298;2024-03-23T10:27:20;94489.84;;;23.97;21.30
35676;BME280;21790;42.668;23.298;2024-03-23T10:29:46;94482.78;;;23.33;22.42
35676;BME280;21790;42.668;23.298;2024-03-23T10:32:14;94483.38;;;23.40;21.59
35676;BME280;21790;42.668;23.298;2024-03-23T10:34:41;94482.41;;;23.58;21.32
35676;BME280;21790;42.668;23.298;2024-03-23T10:37:07;94475.94;;;23.70;20.99
35676;BME280;21790;42.668;23.298;2024-03-23T10:39:38;94471.91;;;23.87;21.28
35676;BME280;21790;42.668;23.298;2024-03-23T10:42:06;94457.69;;;24.00;20.80
35676;BME280;21790;42.668;23.298;2024-03-23T10:44:34;94456.94;;;23.99;21.20
35676;BME280;21790;42.668;23.298;2024-03-23T10:47:04;94443.06;;;24.09;21.57
35676;BME280;21790;42.668;23.298;2024-03-23T10:49:32;94439.25;;;23.99;22.21
35676;BME280;21790;42.668;23.298;2024-03-23T10:51:59;94433.53;;;23.84;21.98
35676;BME280;21790;42.668;23.298;2024-03-23T10:54:26;94431.16;;;24.03;21.48
35676;BME280;21790;42.668;23.298;2024-03-23T10:57:29;94428.13;;;24.01;21.72
35676;BME280;21790;42.668;23.298;2024-03-23T10:59:57;94421.81;;;23.51;21.65
35676;BME280;21790;42.668;23.298;2024-03-23T11:02:23;94416.59;;;23.84;20.87
35676;BME280;21790;42.668;23.298;2024-03-23T11:04:52;94409.66;;;23.92;20.90
35676;BME280;21790;42.668;23.298;2024-03-23T11:09:53;94397.28;;;23.39;21.37
35676;BME280;21790;42.668;23.298;2024-03-23T11:15:05;94387.03;;;23.85;21.04
35676;BME280;21790;42.668;23.298;2024-03-23T11:17:32;94393.81;;;23.82;21.42
35676;BME280;21790;42.668;23.298;2024-03-23T11:20:02;94384.13;;;23.69;20.27
35676;BME280;21790;42.668;23.298;2024-03-23T11:25:12;94373.41;;;23.40;21.57
35676;BME280;21790;42.668;23.298;2024-03-23T11:27:38;94372.47;;;23.65;21.28
35676;BME280;21790;42.668;23.298;2024-03-23T11:30:15;94372.81;;;23.98;20.55
35676;BME280;21790;42.668;23.298;2024-03-23T11:32:43;94370.91;;;23.93;20.66
35676;BME280;21790;42.668;23.298;2024-03-23T11:35:09;94349.63;;;23.92;20.46
35676;BME280;21790;42.668;23.298;2024-03-23T11:37:36;94359.63;;;23.93;20.98
35676;BME280;21790;42.668;23.298;2024-03-23T11:40:19;94341.97;;;24.07;20.93
35676;BME280;21790;42.668;23.298;2024-03-23T11:42:45;94341.97;;;24.00;20.99
35676;BME280;21790;42.668;23.298;2024-03-23T11:45:18;94347.19;;;23.96;20.81
35676;BME280;21790;42.668;23.298;2024-03-23T11:47:44;94333.34;;;24.13;20.74
35676;BME280;21790;42.668;23.298;2024-03-23T11:50:19;94340.56;;;24.29;21.63
35676;BME280;21790;42.668;23.298;2024-03-23T11:52:45;94323.56;;;24.14;20.66
35676;BME280;21790;42.668;23.298;2024-03-23T11:55:10;94329.28;;;23.86;20.25
35676;BME280;21790;42.668;23.298;2024-03-23T11:57:36;94316.44;;;23.69;20.67
35676;BME280;21790;42.668;23.298;2024-03-23T12:00:02;94312.31;;;23.14;20.86
35676;BME280;21790;42.668;23.298;2024-03-23T12:02:45;94302.31;;;23.33;20.47
35676;BME280;21790;42.668;23.298;2024-03-23T12:05:15;94301.00;;;23.34;20.50
35676;BME280;21790;42.668;23.298;2024-03-23T12:07:41;94291.78;;;23.34;20.26
35676;BME280;21790;42.668;23.298;2024-03-23T12:10:07;94290.97;;;23.26;20.77
35676;BME280;21790;42.668;23.298;2024-03-23T12:12:33;94276.56;;;23.01;21.55
35676;BME280;21790;42.668;23.298;2024-03-23T12:15:06;94273.44;;;22.63;21.89
35676;BME280;21790;42.668;23.298;2024-03-23T12:17:33;94271.94;;;22.41;21.34
35676;BME280;21790;42.668;23.298;2024-03-23T12:20:00;94266.72;;;22.25;20.80
35676;BME280;21790;42.668;23.298;2024-03-23T12:22:29;94269.66;;;22.61;21.15
35676;BME280;21790;42.668;23.298;2024-03-23T12:24:57;94274.50;;;23.02;20.63
35676;BME280;21790;42.668;23.298;2024-03-23T12:27:23;94262.94;;;23.13;20.56
35676;BME280;21790;42.668;23.298;2024-03-23T12:29:49;94252.59;;;22.87;19.23
35676;BME280;21790;42.668;23.298;2024-03-23T12:32:15;94244.56;;;23.27;18.61
35676;BME280;21790;42.668;23.298;2024-03-23T12:34:41;94250.53;;;23.16;20.68
35676;BME280;21790;42.668;23.298;2024-03-23T12:37:07;94239.13;;;23.29;20.08
35676;BME280;21790;42.668;23.298;2024-03-23T12:39:33;94248.47;;;23.52;20.13
35676;BME280;21790;42.668;23.298;2024-03-23T12:42:01;94237.47;;;23.41;18.89
35676;BME280;21790;42.668;23.298;2024-03-23T12:44:28;94231.72;;;23.47;17.66
35676;BME280;21790;42.668;23.298;2024-03-23T12:46:55;94233.78;;;23.46;18.01
35676;BME280;21790;42.668;23.298;2024-03-23T12:49:20;94225.94;;;23.24;17.59
35676;BME280;21790;42.668;23.298;2024-03-23T12:51:53;94225.41;;;23.61;17.98
35676;BME280;21790;42.668;23.298;2024-03-23T12:54:20;94218.59;;;23.57;18.08
35676;BME280;21790;42.668;23.298;2024-03-23T12:56:46;94212.94;;;23.49;17.73
35676;BME280;21790;42.668;23.298;2024-03-23T12:59:12;94207.16;;;23.26;18.08
35676;BME280;21790;42.668;23.298;2024-03-23T13:01:38;94209.78;;;23.68;17.96
35676;BME280;21790;42.668;23.298;2024-03-23T13:04:04;94207.09;;;23.47;17.27
35676;BME280;21790;42.668;23.298;2024-03-23T13:06:30;94203.75;;;23.56;16.54
35676;BME280;21790;42.668;23.298;2024-03-23T13:09:02;94191.53;;;23.61;16.95
35676;BME280;21790;42.668;23.298;2024-03-23T13:11:29;94204.41;;;23.42;17.64
35676;BME280;21790;42.668;23.298;2024-03-23T13:13:55;94192.25;;;23.54;17.00
35676;BME280;21790;42.668;23.298;2024-03-23T13:16:21;94175.72;;;23.58;17.46
35676;BME280;21790;42.668;23.298;2024-03-23T13:18:47;94181.78;;;23.26;16.99
35676;BME280;21790;42.668;23.298;2024-03-23T13:21:12;94178.81;;;23.32;17.39
35676;BME280;21790;42.668;23.298;2024-03-23T13:23:38;94188.25;;;23.42;17.60
35676;BME280;21790;42.668;23.298;2024-03-23T13:26:07;94172.19;;;23.65;17.57
35676;BME280;21790;42.668;23.298;2024-03-23T13:28:33;94175.56;;;23.79;17.62
35676;BME280;21790;42.668;23.298;2024-03-23T13:31:01;94167.69;;;23.77;17.40
35676;BME280;21790;42.668;23.298;2024-03-23T13:33:29;94169.59;;;23.83;17.15
35676;BME280;21790;42.668;23.298;2024-03-23T13:35:55;94167.47;;;23.17;17.09
35676;BME280;21790;42.668;23.298;2024-03-23T13:38:25;94165.00;;;23.49;17.33
35676;BME280;21790;42.668;23.298;2024-03-23T13:40:58;94164.03;;;23.47;18.03
35676;BME280;21790;42.668;23.298;2024-03-23T13:43:25;94154.97;;;23.41;17.59
35676;BME280;21790;42.668;23.298;2024-03-23T13:45:58;94154.81;;;23.03;17.47
35676;BME280;21790;42.668;23.298;2024-03-23T13:48:26;94154.69;;;23.16;17.68
35676;BME280;21790;42.668;23.298;2024-03-23T13:50:59;94154.31;;;23.12;17.42